»·PEaware :: WAT169 KSNA-KLAS

WAT169 :: KSNA-KLAS

FLIGHT INFORMATION

Flight Status: Arrived
Operator:
Walker Air Transport
More flights by this operator :: More flights under this callsign
Pilot: Marty P. (27464)
Aircraft: BOEING 737-800
(B738)
More flights by this aircraft type
Origin: KSNA John Wayne-Orange Co
United States
Destination: KLAS McCarran Intl
United States
More flights between these airports :: More routes between these airports
Route: FINZZ3 MISEN KEPEC6
File this flight plan on PilotEdge
Remarks:
Altitude:
(Current/Filed)
27,000ft
Speed:
(Current/Filed)
480kts
Departed: 22-Feb-21 11:47 AM
Arrived: 22-Feb-21 12:32 PM
Distance/Time
Traveled:
197nm/0:45
Distance/Time
To Go:
Arrived

Flight Plot

Page will automatically refresh every two minutes.

Flight plan parsing failed; only flown route is shown


Map Options




Map Legend


Flown Route
Filed Route
Departure Airport
Arrival Airport
Navaid (VOR, NDB)
Fix

Horizontal Profiles

Position Reports

Time Latitude Longitude Heading Altitude Ground
Speed
22-Feb-21 11:26 33.675005 -117.865072 118 66ft 0kts
22-Feb-21 11:28 33.675005 -117.865072 118 66ft 0kts
22-Feb-21 11:29 33.675005 -117.865072 118 66ft 0kts
22-Feb-21 11:29 33.675005 -117.865072 118 66ft 0kts
22-Feb-21 11:31 33.675005 -117.865072 118 66ft 0kts
22-Feb-21 11:31 33.675005 -117.865072 118 66ft 0kts
22-Feb-21 11:32 33.675005 -117.865072 118 66ft 0kts
22-Feb-21 11:33 33.675005 -117.865072 118 66ft 0kts
22-Feb-21 11:35 33.675005 -117.865072 118 66ft 0kts
22-Feb-21 11:36 33.675005 -117.865072 118 66ft 0kts
22-Feb-21 11:36 33.675005 -117.865073 118 66ft 0kts
22-Feb-21 11:37 33.675129 -117.865351 118 66ft 0kts
22-Feb-21 11:38 33.675022 -117.865903 30 66ft 0kts
22-Feb-21 11:39 33.674960 -117.865939 27 66ft 0kts
22-Feb-21 11:40 33.674960 -117.865939 27 66ft 0kts
22-Feb-21 11:41 33.674960 -117.865939 27 66ft 0kts
22-Feb-21 11:42 33.674960 -117.865939 27 66ft 0kts
22-Feb-21 11:43 33.677008 -117.864632 27 66ft 14kts
22-Feb-21 11:44 33.680429 -117.862821 327 66ft 4kts
22-Feb-21 11:45 33.681283 -117.864476 298 66ft 11kts
22-Feb-21 11:46 33.664746 -117.875741 206 352ft 170kts
22-Feb-21 11:47 33.610443 -117.894602 184 3224ft 246kts
22-Feb-21 11:48 33.546398 -117.926851 220 7007ft 276kts
22-Feb-21 11:49 33.506126 -118.000571 267 7002ft 266kts
22-Feb-21 11:50 33.538489 -118.076829 320 7825ft 274kts
22-Feb-21 11:51 33.608611 -118.108335 3 10981ft 305kts
22-Feb-21 11:52 33.697127 -118.067420 27 13088ft 365kts
22-Feb-21 11:53 33.790196 -118.012749 26 16139ft 381kts
22-Feb-21 11:54 33.887480 -117.955896 27 18838ft 395kts
22-Feb-21 11:55 33.976945 -117.880314 37 21282ft 405kts
22-Feb-21 11:56 34.065587 -117.794942 43 23274ft 417kts
22-Feb-21 11:57 34.144815 -117.691487 50 25443ft 420kts
22-Feb-21 11:58 34.220375 -117.582367 51 27234ft 428kts
22-Feb-21 11:59 34.299179 -117.465829 51 27333ft 467kts
22-Feb-21 12:00 34.380724 -117.343928 52 27408ft 464kts
22-Feb-21 12:01 34.461187 -117.223296 52 27388ft 466kts
22-Feb-21 12:02 34.542826 -117.100623 52 27409ft 465kts
22-Feb-21 12:03 34.625436 -116.979885 51 27434ft 466kts
22-Feb-21 12:04 34.708342 -116.859042 51 27439ft 466kts
22-Feb-21 12:05 34.791413 -116.737561 51 27439ft 468kts
22-Feb-21 12:06 34.876208 -116.626129 43 27444ft 428kts
22-Feb-21 12:07 34.972852 -116.530056 39 25564ft 456kts
22-Feb-21 12:08 35.071298 -116.434394 38 24424ft 458kts
22-Feb-21 12:09 35.161743 -116.329144 45 23159ft 438kts
22-Feb-21 12:10 35.242745 -116.228031 45 21168ft 403kts
22-Feb-21 12:11 35.319357 -116.131904 45 19163ft 389kts
22-Feb-21 12:12 35.393705 -116.038181 45 17164ft 379kts
22-Feb-21 12:13 35.465680 -115.947206 45 15163ft 368kts
22-Feb-21 12:14 35.535624 -115.858565 45 13434ft 351kts
22-Feb-21 12:15 35.604381 -115.771213 45 13450ft 357kts
22-Feb-21 12:16 35.672646 -115.684243 45 13076ft 354kts
22-Feb-21 12:17 35.735302 -115.608467 34 13071ft 353kts
22-Feb-21 12:18 35.827237 -115.571783 3 13076ft 353kts
22-Feb-21 12:19 35.925092 -115.563722 13 13057ft 352kts
22-Feb-21 12:20 35.995857 -115.485625 64 12718ft 361kts
22-Feb-21 12:21 36.027061 -115.375485 81 10800ft 314kts
22-Feb-21 12:22 36.023826 -115.273743 94 9178ft 275kts
22-Feb-21 12:23 36.017307 -115.184400 94 8125ft 255kts
22-Feb-21 12:24 36.011439 -115.097545 94 7135ft 253kts
22-Feb-21 12:25 36.006187 -115.011686 93 6134ft 247kts
22-Feb-21 12:26 36.011479 -114.932509 36 5543ft 214kts
22-Feb-21 12:27 36.064499 -114.927669 337 5487ft 195kts
22-Feb-21 12:28 36.073625 -114.990465 267 4658ft 209kts
22-Feb-21 12:29 36.073621 -115.057566 271 3158ft 163kts
22-Feb-21 12:30 36.073646 -115.112241 271 2317ft 158kts
22-Feb-21 12:31 36.074171 -115.144671 295 2100ft 22kts
22-Feb-21 12:32 36.075228 -115.146463 342 2106ft 11kts
22-Feb-21 12:33 36.079980 -115.147883 345 2102ft 1kts
22-Feb-21 12:34 36.080326 -115.147271 65 2099ft 0kts
22-Feb-21 12:35 36.080326 -115.147271 65 2099ft 0kts
22-Feb-21 12:36 36.080326 -115.147271 65 2099ft 0kts
22-Feb-21 12:37 36.080326 -115.147271 65 2099ft 0kts
22-Feb-21 12:38 36.080326 -115.147271 65 2099ft 0kts
22-Feb-21 12:39 36.080326 -115.147271 65 2099ft 0kts
22-Feb-21 12:40 36.080326 -115.147271 65 2099ft 0kts
22-Feb-21 12:41 36.080326 -115.147271 65 2099ft 0kts
22-Feb-21 12:42 36.080326 -115.147271 65 2099ft 0kts
22-Feb-21 12:43 36.080326 -115.147271 65 2099ft 0kts
22-Feb-21 12:44 36.080326 -115.147271 65 2099ft 0kts

Navigation Log

Ident Type
Flight plan parsing failed, navigation log unavailable